Time;durP1;ratioP1;P1;durP2;ratioP2;P2;SDS_P1;SDS_P2;PMS_P1;PMS_P2;Temp;Humidity;BMP_temperature;BMP_pressure;BME280_temperature;BME280_humidity;BME280_pressure;Samples;Min_cycle;Max_cycle;Signal;HPM_P1;HPM_P2
2023/08/03 00:02:08;;;;;;;;;;;;;;;;;;5091304;27;19916;-68
2023/08/03 00:04:34;;;;;;;;;;;;;;;;;;5091326;28;20011;-68
2023/08/03 00:07:00;;;;;;;;;;;;;;;;;;5091124;28;19909;-68
2023/08/03 00:11:08;;;;;;;;;;;;;;;;;;5092028;27;19916;-68
2023/08/03 00:13:34;;;;;;;;;;;;;;;;;;5091318;28;20345;-68
2023/08/03 00:18:18;;;;;;;;;;;;;;;;;;5112096;27;19922;-68
2023/08/03 00:20:46;;;;;;;;;;;;;;;;;;5111569;28;19965;-68
2023/08/03 00:23:12;;;;;;;;;;;;;;;;;;5111172;28;19934;-68
2023/08/03 00:26:09;;;;;;;;;;;;;;;;;;5153438;27;20002;-68
2023/08/03 00:28:35;;;;;;;;;;;;;;;;;;5152780;27;20351;-68
2023/08/03 00:31:49;;;;;;;;;;;;;;;;;;5112198;27;19922;-68
2023/08/03 00:36:16;;;;;;;;;;;;;;;;;;5111355;27;19912;-68
2023/08/03 00:38:42;;;;;;;;;;;;;;;;;;5112151;28;20450;-69
2023/08/03 00:41:08;;;;;;;;;;;;;;;;;;5111840;28;19974;-68
2023/08/03 00:44:55;;;;;;;;;;;;;;;;;;5091063;28;20352;-68
2023/08/03 00:47:21;;;;;;;;;;;;;;;;;;5091305;28;20007;-68
2023/08/03 00:50:41;;;;;;;;;;;;;;;;;;5091473;27;19916;-68
2023/08/03 00:53:07;;;;;;;;;;;;;;;;;;5090050;28;19935;-68
2023/08/03 00:56:55;;;;;;;;;;;;;;;;;;5071736;28;19928;-69
2023/08/03 00:59:21;;;;;;;;;;;;;;;;;;5070761;28;20350;-69
2023/08/03 01:01:47;;;;;;;;;;;;;;;;;;5071007;28;19913;-69
2023/08/03 01:04:13;;;;;;;;;;;;;;;;;;5071179;28;20276;-69
2023/08/03 01:06:39;;;;;;;;;;;;;;;;;;5070610;28;19908;-69
2023/08/03 01:10:47;;;;;;;;;;;;;;;;;;5111701;27;20384;-68
2023/08/03 01:13:13;;;;;;;;;;;;;;;;;;5111183;28;20007;-68
2023/08/03 01:15:39;;;;;;;;;;;;;;;;;;5110312;28;19908;-68
2023/08/03 01:24:31;;;;;;;;;;;;;;;;;;5091737;28;19912;-68
2023/08/03 01:26:57;;;;;;;;;;;;;;;;;;5090917;28;20007;-68
2023/08/03 01:29:23;;;;;;;;;;;;;;;;;;5089927;28;19908;-68
2023/08/03 01:31:54;;;;;;;;;;;;;;;;;;5091194;28;19943;-68
2023/08/03 01:34:20;;;;;;;;;;;;;;;;;;5090797;28;19951;-68
2023/08/03 01:40:20;;;;;;;;;;;;;;;;;;5091168;27;19916;-68
2023/08/03 01:42:46;;;;;;;;;;;;;;;;;;5091267;28;19912;-68
2023/08/03 01:45:12;;;;;;;;;;;;;;;;;;5091236;28;19909;-68
2023/08/03 01:47:38;;;;;;;;;;;;;;;;;;5090844;28;19908;-68
2023/08/03 01:50:04;;;;;;;;;;;;;;;;;;5091119;28;19912;-68
2023/08/03 01:52:30;;;;;;;;;;;;;;;;;;5091130;28;19919;-68
2023/08/03 01:56:02;;;;;;;;;;;;;;;;;;5091823;27;20377;-68
2023/08/03 02:11:14;;;;;;;;;;;;;;;;;;5092113;28;19916;-68
2023/08/03 02:13:40;;;;;;;;;;;;;;;;;;5089943;28;20007;-68
2023/08/03 02:16:10;;;;;;;;;;;;;;;;;;5090758;28;19912;-68
2023/08/03 02:18:37;;;;;;;;;;;;;;;;;;5091169;28;19915;-68
2023/08/03 02:21:02;;;;;;;;;;;;;;;;;;5091046;28;19916;-68
2023/08/03 02:26:59;;;;;;;;;;;;;;;;;;5091998;27;19916;-68
2023/08/03 02:29:25;;;;;;;;;;;;;;;;;;5090805;28;20447;-68
2023/08/03 02:31:51;;;;;;;;;;;;;;;;;;5089900;28;19913;-69
2023/08/03 02:36:43;;;;;;;;;;;;;;;;;;5111444;27;19912;-68
2023/08/03 02:39:09;;;;;;;;;;;;;;;;;;5110332;28;19920;-68
2023/08/03 02:41:38;;;;;;;;;;;;;;;;;;5111531;28;19908;-68
2023/08/03 02:44:04;;;;;;;;;;;;;;;;;;5111132;28;19953;-68
2023/08/03 02:46:33;;;;;;;;;;;;;;;;;;5110127;28;19912;-68
2023/08/03 02:49:00;;;;;;;;;;;;;;;;;;5110185;28;19908;-68
2023/08/03 02:52:47;;;;;;;;;;;;;;;;;;5091417;27;19917;-68
2023/08/03 02:57:31;;;;;;;;;;;;;;;;;;5051266;28;19917;-68
2023/08/03 02:59:57;;;;;;;;;;;;;;;;;;5051379;28;19920;-68
2023/08/03 03:02:42;;;;;;;;;;;;;;;;;;5092205;28;19927;-68
2023/08/03 03:06:33;;;;;;;;;;;;;;;;;;5091911;27;20287;-68
2023/08/03 03:08:59;;;;;;;;;;;;;;;;;;5091768;28;19920;-68
2023/08/03 03:11:25;;;;;;;;;;;;;;;;;;5089497;28;19987;-68
2023/08/03 03:13:51;;;;;;;;;;;;;;;;;;5091134;28;19943;-68
2023/08/03 03:16:25;;;;;;;;;;;;;;;;;;5091089;28;19916;-68
2023/08/03 03:18:51;;;;;;;;;;;;;;;;;;5090903;28;19909;-68
2023/08/03 03:21:17;;;;;;;;;;;;;;;;;;5091011;28;20330;-68
2023/08/03 03:23:43;;;;;;;;;;;;;;;;;;5090969;28;19920;-69
2023/08/03 03:26:09;;;;;;;;;;;;;;;;;;5090434;28;19916;-69
2023/08/03 03:30:53;;;;;;;;;;;;;;;;;;5112163;27;19916;-68
2023/08/03 03:33:19;;;;;;;;;;;;;;;;;;5111364;28;20014;-69
2023/08/03 03:38:00;;;;;;;;;;;;;;;;;;5091317;27;19916;-68
2023/08/03 03:40:26;;;;;;;;;;;;;;;;;;5089628;28;19995;-68
2023/08/03 03:43:34;;;;;;;;;;;;;;;;;;5091599;27;19916;-68
2023/08/03 03:47:57;;;;;;;;;;;;;;;;;;5091039;27;19922;-68
2023/08/03 03:51:50;;;;;;;;;;;;;;;;;;5091281;27;19938;-68
2023/08/03 03:54:16;;;;;;;;;;;;;;;;;;5091109;28;20432;-68
2023/08/03 03:56:55;;;;;;;;;;;;;;;;;;5091537;28;19913;-68
2023/08/03 04:00:49;;;;;;;;;;;;;;;;;;5091146;28;19923;-69
2023/08/03 04:03:15;;;;;;;;;;;;;;;;;;5091524;28;20006;-68
2023/08/03 04:07:40;;;;;;;;;;;;;;;;;;5091107;27;19939;-68
2023/08/03 04:10:06;;;;;;;;;;;;;;;;;;5089922;28;20444;-68
2023/08/03 04:16:24;;;;;;;;;;;;;;;;;;5091485;28;19917;-68
2023/08/03 04:18:50;;;;;;;;;;;;;;;;;;5091468;28;19913;-68
2023/08/03 04:24:35;;;;;;;;;;;;;;;;;;5092033;27;19923;-68
2023/08/03 04:27:01;;;;;;;;;;;;;;;;;;5091351;28;19916;-68
2023/08/03 04:29:27;;;;;;;;;;;;;;;;;;5090855;28;19909;-68
2023/08/03 04:33:49;;;;;;;;;;;;;;;;;;5091822;28;19913;-68
2023/08/03 04:36:15;;;;;;;;;;;;;;;;;;5091011;28;19951;-68
2023/08/03 04:38:55;;;;;;;;;;;;;;;;;;5112124;27;19916;-68
2023/08/03 04:42:58;;;;;;;;;;;;;;;;;;5091333;27;19919;-68
2023/08/03 04:45:24;;;;;;;;;;;;;;;;;;5091425;28;19913;-68
2023/08/03 04:47:49;;;;;;;;;;;;;;;;;;5091467;28;19908;-68
2023/08/03 04:50:19;;;;;;;;;;;;;;;;;;5089466;28;19918;-68
2023/08/03 04:54:39;;;;;;;;;;;;;;;;;;5091847;27;19938;-68
2023/08/03 04:58:24;;;;;;;;;;;;;;;;;;5173228;27;19918;-67
2023/08/03 05:06:05;;;;;;;;;;;;;;;;;;5092112;27;19923;-68
2023/08/03 05:08:31;;;;;;;;;;;;;;;;;;5091268;28;19998;-67
2023/08/03 05:12:34;;;;;;;;;;;;;;;;;;5090937;27;19916;-68
2023/08/03 05:15:00;;;;;;;;;;;;;;;;;;5089937;28;19912;-68
2023/08/03 05:21:48;;;;;;;;;;;;;;;;;;5091896;27;19916;-68
2023/08/03 05:24:14;;;;;;;;;;;;;;;;;;5091591;28;20003;-68
2023/08/03 05:26:40;;;;;;;;;;;;;;;;;;5090826;28;19912;-68
2023/08/03 05:29:06;;;;;;;;;;;;;;;;;;5091210;28;19922;-68
2023/08/03 05:31:59;;;;;;;;;;;;;;;;;;5091150;28;19912;-67
2023/08/03 05:34:25;;;;;;;;;;;;;;;;;;5091365;28;20007;-68
2023/08/03 05:41:48;;;;;;;;;;;;;;;;;;5071652;28;19917;-68
2023/08/03 05:44:14;;;;;;;;;;;;;;;;;;5071032;28;20011;-68
2023/08/03 05:46:40;;;;;;;;;;;;;;;;;;5070697;28;19908;-68
2023/08/03 05:49:08;;;;;;;;;;;;;;;;;;5069693;28;20006;-67
2023/08/03 05:51:34;;;;;;;;;;;;;;;;;;5069595;28;20388;-68
2023/08/03 05:55:34;;;;;;;;;;;;;;;;;;5091672;27;19923;-67
2023/08/03 05:58:00;;;;;;;;;;;;;;;;;;5091175;28;19999;-68
2023/08/03 06:00:26;;;;;;;;;;;;;;;;;;5090924;28;19954;-69
2023/08/03 06:02:51;;;;;;;;;;;;;;;;;;5091355;28;19908;-68
2023/08/03 06:05:17;;;;;;;;;;;;;;;;;;5089793;28;19908;-68
2023/08/03 06:07:43;;;;;;;;;;;;;;;;;;5090618;28;19912;-67
2023/08/03 06:10:09;;;;;;;;;;;;;;;;;;5090963;28;19962;-68
2023/08/03 06:12:35;;;;;;;;;;;;;;;;;;5091138;28;19965;-68
2023/08/03 06:15:01;;;;;;;;;;;;;;;;;;5090480;28;19924;-68
2023/08/03 06:18:56;;;;;;;;;;;;;;;;;;5091490;28;19916;-68
2023/08/03 06:22:12;;;;;;;;;;;;;;;;;;5091160;27;19916;-68
2023/08/03 06:26:03;;;;;;;;;;;;;;;;;;5071262;28;19913;-68
2023/08/03 06:28:29;;;;;;;;;;;;;;;;;;5069385;28;19935;-68
2023/08/03 06:30:54;;;;;;;;;;;;;;;;;;5071391;28;19909;-68
2023/08/03 06:34:43;;;;;;;;;;;;;;;;;;5091294;28;20380;-68
2023/08/03 06:37:09;;;;;;;;;;;;;;;;;;5089636;28;19951;-68
2023/08/03 06:39:35;;;;;;;;;;;;;;;;;;5091154;28;19947;-68
2023/08/03 06:43:32;;;;;;;;;;;;;;;;;;5091160;27;19916;-68
2023/08/03 06:46:07;;;;;;;;;;;;;;;;;;5091812;28;20266;-68
2023/08/03 06:49:04;;;;;;;;;;;;;;;;;;5091525;27;19916;-68
2023/08/03 06:51:30;;;;;;;;;;;;;;;;;;5091905;28;19960;-68
2023/08/03 06:53:55;;;;;;;;;;;;;;;;;;5090982;28;20468;-68
2023/08/03 06:56:21;;;;;;;;;;;;;;;;;;5090926;28;19999;-68
2023/08/03 06:58:47;;;;;;;;;;;;;;;;;;5090937;28;19916;-67
2023/08/03 07:01:13;;;;;;;;;;;;;;;;;;5091035;28;19914;-68
2023/08/03 07:03:39;;;;;;;;;;;;;;;;;;5089395;28;19933;-68
2023/08/03 07:06:06;;;;;;;;;;;;;;;;;;5090983;28;19916;-68
2023/08/03 07:08:32;;;;;;;;;;;;;;;;;;5090897;28;19916;-68
2023/08/03 07:10:58;;;;;;;;;;;;;;;;;;5090310;28;19930;-68
2023/08/03 07:13:24;;;;;;;;;;;;;;;;;;5084841;28;19916;-69
2023/08/03 07:15:50;;;;;;;;;;;;;;;;;;5086994;28;19913;-66
2023/08/03 07:18:16;;;;;;;;;;;;;;;;;;5088325;28;19999;-67
2023/08/03 07:20:42;;;;;;;;;;;;;;;;;;5088464;28;19908;-67
2023/08/03 07:25:29;;;;;;;;;;;;;;;;;;5108791;27;19922;-66
2023/08/03 07:27:56;;;;;;;;;;;;;;;;;;5109339;28;19912;-67
2023/08/03 07:30:22;;;;;;;;;;;;;;;;;;5108451;28;19908;-67
2023/08/03 07:32:47;;;;;;;;;;;;;;;;;;5108574;28;19972;-67
2023/08/03 07:41:32;;;;;;;;;;;;;;;;;;5152601;27;20005;-67
2023/08/03 07:43:58;;;;;;;;;;;;;;;;;;5152594;27;19965;-67
2023/08/03 07:46:24;;;;;;;;;;;;;;;;;;5133549;27;19956;-67
2023/08/03 07:48:50;;;;;;;;;;;;;;;;;;5152291;27;20007;-67
2023/08/03 07:51:16;;;;;;;;;;;;;;;;;;5152388;27;19907;-68
2023/08/03 07:53:42;;;;;;;;;;;;;;;;;;5152026;27;19907;-68
2023/08/03 07:56:08;;;;;;;;;;;;;;;;;;5133877;27;20002;-67
2023/08/03 07:58:34;;;;;;;;;;;;;;;;;;5152221;27;19915;-68
2023/08/03 08:01:00;;;;;;;;;;;;;;;;;;5151656;27;19926;-67
2023/08/03 08:03:26;;;;;;;;;;;;;;;;;;5152294;27;20416;-67
2023/08/03 08:05:52;;;;;;;;;;;;;;;;;;5152145;27;19908;-67
2023/08/03 08:08:18;;;;;;;;;;;;;;;;;;5151766;27;19934;-68
2023/08/03 08:10:44;;;;;;;;;;;;;;;;;;5151847;27;19964;-68
2023/08/03 08:13:10;;;;;;;;;;;;;;;;;;5151889;27;19915;-67
2023/08/03 08:15:36;;;;;;;;;;;;;;;;;;5151171;27;19908;-68
2023/08/03 08:18:02;;;;;;;;;;;;;;;;;;5151909;27;19911;-67
2023/08/03 08:22:33;;;;;;;;;;;;;;;;;;5131322;27;19911;-69
2023/08/03 08:24:59;;;;;;;;;;;;;;;;;;5113441;28;19948;-68
2023/08/03 08:27:25;;;;;;;;;;;;;;;;;;5131684;28;19908;-68
2023/08/03 08:29:51;;;;;;;;;;;;;;;;;;5112635;28;20006;-68
2023/08/03 08:32:17;;;;;;;;;;;;;;;;;;5112152;28;19908;-68
2023/08/03 08:34:43;;;;;;;;;;;;;;;;;;5112803;28;20338;-67
2023/08/03 08:37:09;;;;;;;;;;;;;;;;;;5131725;28;19954;-68
2023/08/03 08:39:35;;;;;;;;;;;;;;;;;;5129733;28;19908;-67
2023/08/03 08:42:01;;;;;;;;;;;;;;;;;;5130276;28;19919;-67
2023/08/03 08:44:27;;;;;;;;;;;;;;;;;;5131564;28;19952;-67
2023/08/03 08:46:53;;;;;;;;;;;;;;;;;;5131307;28;19913;-67
2023/08/03 08:49:18;;;;;;;;;;;;;;;;;;5131095;28;19941;-68
2023/08/03 08:51:44;;;;;;;;;;;;;;;;;;5131373;28;20429;-68
2023/08/03 08:54:10;;;;;;;;;;;;;;;;;;5131377;28;19957;-67
2023/08/03 08:56:36;;;;;;;;;;;;;;;;;;5130934;28;19911;-68
2023/08/03 08:59:03;;;;;;;;;;;;;;;;;;5131206;28;20358;-67
2023/08/03 09:01:29;;;;;;;;;;;;;;;;;;5131230;28;20360;-67
2023/08/03 09:03:56;;;;;;;;;;;;;;;;;;5130967;28;19961;-68
2023/08/03 09:06:22;;;;;;;;;;;;;;;;;;5131167;28;19953;-68
2023/08/03 09:08:48;;;;;;;;;;;;;;;;;;5131036;28;19916;-68
2023/08/03 09:11:14;;;;;;;;;;;;;;;;;;5130709;28;19916;-68
2023/08/03 09:13:40;;;;;;;;;;;;;;;;;;5112674;28;19915;-68
2023/08/03 09:16:06;;;;;;;;;;;;;;;;;;5131114;28;19915;-69
2023/08/03 09:18:32;;;;;;;;;;;;;;;;;;5130554;28;19912;-68
2023/08/03 09:20:58;;;;;;;;;;;;;;;;;;5116271;28;19927;-68
2023/08/03 09:23:23;;;;;;;;;;;;;;;;;;5130814;28;19907;-68
2023/08/03 09:25:49;;;;;;;;;;;;;;;;;;5128157;28;20048;-68
2023/08/03 09:28:15;;;;;;;;;;;;;;;;;;5130810;28;19907;-68
2023/08/03 09:30:41;;;;;;;;;;;;;;;;;;5128989;28;19911;-69
2023/08/03 09:33:07;;;;;;;;;;;;;;;;;;5121174;28;19908;-68
2023/08/03 09:35:33;;;;;;;;;;;;;;;;;;5116905;28;19908;-68
2023/08/03 09:38:00;;;;;;;;;;;;;;;;;;5115241;28;20436;-68
2023/08/03 09:40:26;;;;;;;;;;;;;;;;;;5116818;28;19982;-68
2023/08/03 09:42:52;;;;;;;;;;;;;;;;;;5116628;28;20283;-67
2023/08/03 09:45:18;;;;;;;;;;;;;;;;;;5116375;28;19911;-68
2023/08/03 09:47:44;;;;;;;;;;;;;;;;;;5115402;28;19908;-70
2023/08/03 09:50:10;;;;;;;;;;;;;;;;;;5116654;28;19915;-68
2023/08/03 09:52:35;;;;;;;;;;;;;;;;;;5116023;28;19908;-69
2023/08/03 09:55:01;;;;;;;;;;;;;;;;;;5116486;28;20018;-68
2023/08/03 09:57:27;;;;;;;;;;;;;;;;;;5114115;28;19929;-69
2023/08/03 09:59:54;;;;;;;;;;;;;;;;;;5116111;28;20362;-68
2023/08/03 10:02:20;;;;;;;;;;;;;;;;;;5116364;28;19916;-68
2023/08/03 10:04:46;;;;;;;;;;;;;;;;;;5116151;28;19907;-69
2023/08/03 10:07:12;;;;;;;;;;;;;;;;;;5115933;28;19915;-68
2023/08/03 10:09:38;;;;;;;;;;;;;;;;;;5116568;28;19912;-69
2023/08/03 10:12:04;;;;;;;;;;;;;;;;;;5116226;28;19907;-68
2023/08/03 10:14:30;;;;;;;;;;;;;;;;;;5115660;28;19961;-68
2023/08/03 10:16:58;;;;;;;;;;;;;;;;;;5116047;28;19908;-69
2023/08/03 10:19:24;;;;;;;;;;;;;;;;;;5114510;28;20375;-71
2023/08/03 10:21:50;;;;;;;;;;;;;;;;;;5115544;28;20008;-69
2023/08/03 10:24:16;;;;;;;;;;;;;;;;;;5116155;28;19915;-70
2023/08/03 10:26:42;;;;;;;;;;;;;;;;;;5116062;28;20363;-70
2023/08/03 10:29:08;;;;;;;;;;;;;;;;;;5115738;28;20010;-71
2023/08/03 10:31:34;;;;;;;;;;;;;;;;;;5115330;28;20057;-70
2023/08/03 10:34:00;;;;;;;;;;;;;;;;;;5115328;28;19907;-70
2023/08/03 10:36:26;;;;;;;;;;;;;;;;;;5116055;28;20322;-70
2023/08/03 10:38:52;;;;;;;;;;;;;;;;;;5114606;28;19995;-70
2023/08/03 10:41:18;;;;;;;;;;;;;;;;;;5115349;28;20006;-70
2023/08/03 10:43:43;;;;;;;;;;;;;;;;;;5114026;28;19908;-70
2023/08/03 10:46:09;;;;;;;;;;;;;;;;;;5114400;28;19915;-70
2023/08/03 10:48:37;;;;;;;;;;;;;;;;;;5114791;28;19908;-70
2023/08/03 10:51:03;;;;;;;;;;;;;;;;;;5115147;28;19913;-70
2023/08/03 10:53:29;;;;;;;;;;;;;;;;;;5115604;28;19908;-70
2023/08/03 10:55:55;;;;;;;;;;;;;;;;;;5115143;28;20494;-70
2023/08/03 10:58:20;;;;;;;;;;;;;;;;;;5115483;28;19977;-70
2023/08/03 11:00:46;;;;;;;;;;;;;;;;;;5114192;28;20006;-70
2023/08/03 11:03:12;;;;;;;;;;;;;;;;;;5115109;28;19908;-70
2023/08/03 11:05:38;;;;;;;;;;;;;;;;;;5115378;28;19915;-69
2023/08/03 11:08:04;;;;;;;;;;;;;;;;;;5115535;28;20002;-70
2023/08/03 11:10:30;;;;;;;;;;;;;;;;;;5115009;28;20007;-70
2023/08/03 11:12:56;;;;;;;;;;;;;;;;;;5115826;28;19908;-71
2023/08/03 11:15:22;;;;;;;;;;;;;;;;;;5115225;28;19995;-70
2023/08/03 11:17:51;;;;;;;;;;;;;;;;;;5114668;28;20417;-70
2023/08/03 11:20:17;;;;;;;;;;;;;;;;;;5114822;28;20441;-69
2023/08/03 11:22:43;;;;;;;;;;;;;;;;;;5115326;28;19912;-70
2023/08/03 11:25:09;;;;;;;;;;;;;;;;;;5114836;28;19908;-71
2023/08/03 11:27:35;;;;;;;;;;;;;;;;;;5114996;28;19911;-70
2023/08/03 11:30:03;;;;;;;;;;;;;;;;;;5114941;28;19912;-70
2023/08/03 11:32:29;;;;;;;;;;;;;;;;;;5114399;28;20272;-70
2023/08/03 11:34:55;;;;;;;;;;;;;;;;;;5114826;28;19908;-70
2023/08/03 11:37:21;;;;;;;;;;;;;;;;;;5114660;28;19936;-69
2023/08/03 11:39:46;;;;;;;;;;;;;;;;;;5114974;28;20391;-69
2023/08/03 11:42:12;;;;;;;;;;;;;;;;;;5114362;28;20296;-70
2023/08/03 11:44:39;;;;;;;;;;;;;;;;;;5113641;28;20275;-70
2023/08/03 11:47:05;;;;;;;;;;;;;;;;;;5114631;28;19908;-70
2023/08/03 11:49:31;;;;;;;;;;;;;;;;;;5113272;28;19912;-70
2023/08/03 11:51:59;;;;;;;;;;;;;;;;;;5112912;28;20000;-70
2023/08/03 11:54:25;;;;;;;;;;;;;;;;;;5113237;28;19943;-70
2023/08/03 11:56:51;;;;;;;;;;;;;;;;;;5114240;28;19955;-70
2023/08/03 11:59:17;;;;;;;;;;;;;;;;;;5113248;28;19912;-70
2023/08/03 12:01:44;;;;;;;;;;;;;;;;;;5114339;28;20036;-70
2023/08/03 12:04:10;;;;;;;;;;;;;;;;;;5114406;28;19974;-70
2023/08/03 12:06:36;;;;;;;;;;;;;;;;;;5113583;28;19998;-70
2023/08/03 12:09:02;;;;;;;;;;;;;;;;;;5113143;28;19958;-70
2023/08/03 12:11:28;;;;;;;;;;;;;;;;;;5114314;28;19911;-70
2023/08/03 12:13:54;;;;;;;;;;;;;;;;;;5114111;28;20376;-70
2023/08/03 12:16:20;;;;;;;;;;;;;;;;;;5114466;28;20331;-68
2023/08/03 12:18:46;;;;;;;;;;;;;;;;;;5114283;28;20318;-70
2023/08/03 12:21:12;;;;;;;;;;;;;;;;;;5113644;28;19919;-69
2023/08/03 12:23:38;;;;;;;;;;;;;;;;;;5114258;28;19952;-69
2023/08/03 12:26:04;;;;;;;;;;;;;;;;;;5112868;28;19920;-69
2023/08/03 12:28:30;;;;;;;;;;;;;;;;;;5113785;28;19908;-69
2023/08/03 12:30:55;;;;;;;;;;;;;;;;;;5112830;28;19908;-69
2023/08/03 12:33:21;;;;;;;;;;;;;;;;;;5114061;28;19912;-69
2023/08/03 12:35:47;;;;;;;;;;;;;;;;;;5113716;28;19943;-69
2023/08/03 12:38:13;;;;;;;;;;;;;;;;;;5113991;28;19908;-69
2023/08/03 12:40:39;;;;;;;;;;;;;;;;;;5113441;28;19923;-69
2023/08/03 12:43:05;;;;;;;;;;;;;;;;;;5114164;28;19908;-69
2023/08/03 12:45:31;;;;;;;;;;;;;;;;;;5113874;28;19919;-70
2023/08/03 12:47:57;;;;;;;;;;;;;;;;;;5113476;28;19911;-69
2023/08/03 12:50:23;;;;;;;;;;;;;;;;;;5114049;28;19950;-69
2023/08/03 12:52:49;;;;;;;;;;;;;;;;;;5113835;28;19908;-70
2023/08/03 12:55:15;;;;;;;;;;;;;;;;;;5113511;28;20332;-70
2023/08/03 12:57:41;;;;;;;;;;;;;;;;;;5114340;28;19919;-69
2023/08/03 13:00:07;;;;;;;;;;;;;;;;;;5113912;28;19915;-69
2023/08/03 13:02:33;;;;;;;;;;;;;;;;;;5113529;28;19916;-69
2023/08/03 13:04:59;;;;;;;;;;;;;;;;;;5113780;28;19908;-70
2023/08/03 13:07:25;;;;;;;;;;;;;;;;;;5113276;28;19908;-70
2023/08/03 13:09:51;;;;;;;;;;;;;;;;;;5117331;28;19912;-70
2023/08/03 13:12:17;;;;;;;;;;;;;;;;;;5117582;28;19912;-70
2023/08/03 13:14:43;;;;;;;;;;;;;;;;;;5117760;28;20002;-70
2023/08/03 13:17:09;;;;;;;;;;;;;;;;;;5117153;28;20364;-70
2023/08/03 13:19:35;;;;;;;;;;;;;;;;;;5118053;28;20420;-69
2023/08/03 13:22:01;;;;;;;;;;;;;;;;;;5117226;28;20026;-69
2023/08/03 13:24:27;;;;;;;;;;;;;;;;;;5117118;28;19930;-69
2023/08/03 13:26:53;;;;;;;;;;;;;;;;;;5117359;28;20411;-70
2023/08/03 13:29:19;;;;;;;;;;;;;;;;;;5117242;28;20356;-70
2023/08/03 13:31:46;;;;;;;;;;;;;;;;;;5116905;28;20425;-70
2023/08/03 13:34:12;;;;;;;;;;;;;;;;;;5117110;28;19908;-70
2023/08/03 13:36:38;;;;;;;;;;;;;;;;;;5117002;28;20284;-70
2023/08/03 13:39:04;;;;;;;;;;;;;;;;;;5116643;28;20267;-69
2023/08/03 13:41:30;;;;;;;;;;;;;;;;;;5116907;28;19916;-70
2023/08/03 13:43:56;;;;;;;;;;;;;;;;;;5116500;28;19908;-70
2023/08/03 13:46:22;;;;;;;;;;;;;;;;;;5116950;28;19961;-70
2023/08/03 13:48:48;;;;;;;;;;;;;;;;;;5116843;28;19908;-69
2023/08/03 13:51:14;;;;;;;;;;;;;;;;;;5116492;28;20026;-69
2023/08/03 13:53:40;;;;;;;;;;;;;;;;;;5116802;28;19939;-70
2023/08/03 13:56:06;;;;;;;;;;;;;;;;;;5116792;28;19912;-70
2023/08/03 13:58:32;;;;;;;;;;;;;;;;;;5116523;28;19915;-70
2023/08/03 14:00:58;;;;;;;;;;;;;;;;;;5116617;28;19959;-70
2023/08/03 14:03:24;;;;;;;;;;;;;;;;;;5116732;28;19908;-70
2023/08/03 14:05:50;;;;;;;;;;;;;;;;;;5116413;28;19908;-70
2023/08/03 14:08:16;;;;;;;;;;;;;;;;;;5116505;28;19908;-70
2023/08/03 14:10:42;;;;;;;;;;;;;;;;;;5116528;28;19968;-71
2023/08/03 14:13:08;;;;;;;;;;;;;;;;;;5116002;28;19908;-70
2023/08/03 14:15:34;;;;;;;;;;;;;;;;;;5116370;28;19908;-70
2023/08/03 14:18:00;;;;;;;;;;;;;;;;;;5116361;28;19908;-70
2023/08/03 14:20:26;;;;;;;;;;;;;;;;;;5115734;28;19921;-71
2023/08/03 14:22:52;;;;;;;;;;;;;;;;;;5116306;28;19908;-71
2023/08/03 14:25:18;;;;;;;;;;;;;;;;;;5116263;28;19912;-70
2023/08/03 14:27:44;;;;;;;;;;;;;;;;;;5115814;28;19915;-71
2023/08/03 14:30:10;;;;;;;;;;;;;;;;;;5116114;28;19924;-71
2023/08/03 14:32:36;;;;;;;;;;;;;;;;;;5116014;28;19908;-71
2023/08/03 14:35:02;;;;;;;;;;;;;;;;;;5115622;28;20003;-71
2023/08/03 14:37:28;;;;;;;;;;;;;;;;;;5116018;28;20436;-71
2023/08/03 14:39:54;;;;;;;;;;;;;;;;;;5115944;28;19994;-69
2023/08/03 14:42:20;;;;;;;;;;;;;;;;;;5115356;28;19923;-71
2023/08/03 14:44:46;;;;;;;;;;;;;;;;;;5115832;28;19908;-71
2023/08/03 14:47:13;;;;;;;;;;;;;;;;;;5115307;28;19915;-71
2023/08/03 14:49:39;;;;;;;;;;;;;;;;;;5115840;28;20325;-71
2023/08/03 14:52:05;;;;;;;;;;;;;;;;;;5115683;28;19912;-69
2023/08/03 14:54:31;;;;;;;;;;;;;;;;;;5115406;28;19927;-70
2023/08/03 14:56:57;;;;;;;;;;;;;;;;;;5115589;28;20261;-70
2023/08/03 14:59:23;;;;;;;;;;;;;;;;;;5115500;28;19915;-70
2023/08/03 15:01:49;;;;;;;;;;;;;;;;;;5115494;28;20018;-71
2023/08/03 15:04:15;;;;;;;;;;;;;;;;;;5115412;28;19914;-70
2023/08/03 15:06:41;;;;;;;;;;;;;;;;;;5115429;28;19911;-70
2023/08/03 15:09:07;;;;;;;;;;;;;;;;;;5114981;28;19908;-70
2023/08/03 15:11:33;;;;;;;;;;;;;;;;;;5115203;28;19934;-70
2023/08/03 15:14:00;;;;;;;;;;;;;;;;;;5115238;28;20272;-71
2023/08/03 15:16:26;;;;;;;;;;;;;;;;;;5114790;28;19907;-69
2023/08/03 15:18:52;;;;;;;;;;;;;;;;;;5115173;28;20360;-69
2023/08/03 15:21:18;;;;;;;;;;;;;;;;;;5115139;28;20368;-70
2023/08/03 15:23:44;;;;;;;;;;;;;;;;;;5114616;28;19908;-70
2023/08/03 15:26:10;;;;;;;;;;;;;;;;;;5115044;28;20360;-70
2023/08/03 15:28:36;;;;;;;;;;;;;;;;;;5115260;28;19908;-70
2023/08/03 15:31:02;;;;;;;;;;;;;;;;;;5113976;28;20436;-70
2023/08/03 15:33:28;;;;;;;;;;;;;;;;;;5114911;28;20371;-70
2023/08/03 15:35:54;;;;;;;;;;;;;;;;;;5115007;28;19994;-70
2023/08/03 15:38:20;;;;;;;;;;;;;;;;;;5114370;28;19908;-70
2023/08/03 15:40:46;;;;;;;;;;;;;;;;;;5115049;28;20002;-70
2023/08/03 15:43:12;;;;;;;;;;;;;;;;;;5114696;28;19919;-71
2023/08/03 15:45:38;;;;;;;;;;;;;;;;;;5114287;28;19950;-70
2023/08/03 15:48:04;;;;;;;;;;;;;;;;;;5114804;28;19908;-70
2023/08/03 15:50:30;;;;;;;;;;;;;;;;;;5114211;28;19911;-70
2023/08/03 15:52:56;;;;;;;;;;;;;;;;;;5114595;28;20359;-70
2023/08/03 15:55:22;;;;;;;;;;;;;;;;;;5114563;28;19995;-70
2023/08/03 15:57:48;;;;;;;;;;;;;;;;;;5114118;28;20287;-70
2023/08/03 16:00:14;;;;;;;;;;;;;;;;;;5114493;28;19912;-70
2023/08/03 16:02:40;;;;;;;;;;;;;;;;;;5114323;28;20003;-70
2023/08/03 16:05:06;;;;;;;;;;;;;;;;;;5112714;28;19907;-70
2023/08/03 16:07:32;;;;;;;;;;;;;;;;;;5114381;28;19912;-70
2023/08/03 16:09:57;;;;;;;;;;;;;;;;;;5114428;28;19915;-70
2023/08/03 16:12:23;;;;;;;;;;;;;;;;;;5113907;28;19907;-70
2023/08/03 16:14:50;;;;;;;;;;;;;;;;;;5114231;28;20049;-70
2023/08/03 16:17:20;;;;;;;;;;;;;;;;;;5114275;28;19908;-70
2023/08/03 16:19:46;;;;;;;;;;;;;;;;;;5113778;28;20378;-70
2023/08/03 16:22:12;;;;;;;;;;;;;;;;;;5112703;28;19994;-71
2023/08/03 16:24:38;;;;;;;;;;;;;;;;;;5114148;28;19915;-70
2023/08/03 16:27:04;;;;;;;;;;;;;;;;;;5113718;28;19908;-70
2023/08/03 16:29:30;;;;;;;;;;;;;;;;;;5114146;28;19915;-70
2023/08/03 16:31:56;;;;;;;;;;;;;;;;;;5114117;28;19908;-69
2023/08/03 16:34:21;;;;;;;;;;;;;;;;;;5113605;28;19957;-69
2023/08/03 16:36:47;;;;;;;;;;;;;;;;;;5114001;28;19994;-69
2023/08/03 16:39:15;;;;;;;;;;;;;;;;;;5112742;28;20395;-70
2023/08/03 16:41:41;;;;;;;;;;;;;;;;;;5113608;28;19943;-69
2023/08/03 16:44:07;;;;;;;;;;;;;;;;;;5117753;28;20356;-69
2023/08/03 16:46:33;;;;;;;;;;;;;;;;;;5118094;28;20378;-70
2023/08/03 16:48:59;;;;;;;;;;;;;;;;;;5117927;28;20021;-69
2023/08/03 16:51:26;;;;;;;;;;;;;;;;;;5116719;28;19964;-69
2023/08/03 16:53:52;;;;;;;;;;;;;;;;;;5117549;28;19911;-69
2023/08/03 16:56:18;;;;;;;;;;;;;;;;;;5117870;28;19919;-70
2023/08/03 16:58:44;;;;;;;;;;;;;;;;;;5117893;28;19907;-70
2023/08/03 17:01:10;;;;;;;;;;;;;;;;;;5117408;28;19915;-72
2023/08/03 17:03:36;;;;;;;;;;;;;;;;;;5117915;28;19907;-70
2023/08/03 17:06:02;;;;;;;;;;;;;;;;;;5117643;28;19968;-70
2023/08/03 17:08:28;;;;;;;;;;;;;;;;;;5117332;28;19998;-70
2023/08/03 17:10:54;;;;;;;;;;;;;;;;;;5117663;28;19943;-69
2023/08/03 17:13:20;;;;;;;;;;;;;;;;;;5116202;28;19908;-69
2023/08/03 17:15:46;;;;;;;;;;;;;;;;;;5117088;28;19958;-70
2023/08/03 17:18:12;;;;;;;;;;;;;;;;;;5117604;28;19908;-68
2023/08/03 17:20:38;;;;;;;;;;;;;;;;;;5117173;28;20399;-70
2023/08/03 17:23:04;;;;;;;;;;;;;;;;;;5117059;28;20368;-69
2023/08/03 17:25:30;;;;;;;;;;;;;;;;;;5117387;28;19915;-69
2023/08/03 17:27:56;;;;;;;;;;;;;;;;;;5117486;28;20407;-70
2023/08/03 17:30:22;;;;;;;;;;;;;;;;;;5116966;28;20386;-69
2023/08/03 17:32:48;;;;;;;;;;;;;;;;;;5117652;28;20348;-70
2023/08/03 17:35:13;;;;;;;;;;;;;;;;;;5117232;28;20379;-70
2023/08/03 17:37:39;;;;;;;;;;;;;;;;;;5115364;28;19920;-70
2023/08/03 17:40:05;;;;;;;;;;;;;;;;;;5117057;28;20307;-70
2023/08/03 17:42:32;;;;;;;;;;;;;;;;;;5115589;28;20298;-70
2023/08/03 17:44:58;;;;;;;;;;;;;;;;;;5116546;28;19994;-70
2023/08/03 17:47:24;;;;;;;;;;;;;;;;;;5116995;28;19907;-70
2023/08/03 17:49:50;;;;;;;;;;;;;;;;;;5116912;28;19908;-70
2023/08/03 17:52:16;;;;;;;;;;;;;;;;;;5116508;28;19915;-71
2023/08/03 17:54:42;;;;;;;;;;;;;;;;;;5116222;28;19907;-69
2023/08/03 17:57:08;;;;;;;;;;;;;;;;;;5116459;28;19915;-69
2023/08/03 17:59:34;;;;;;;;;;;;;;;;;;5116629;28;19908;-69
2023/08/03 18:02:00;;;;;;;;;;;;;;;;;;5116781;28;20044;-69
2023/08/03 18:04:31;;;;;;;;;;;;;;;;;;5116161;28;19954;-69
2023/08/03 18:06:57;;;;;;;;;;;;;;;;;;5116485;28;20002;-69
2023/08/03 18:09:25;;;;;;;;;;;;;;;;;;5116598;28;20067;-69
2023/08/03 18:11:51;;;;;;;;;;;;;;;;;;5116176;28;20003;-70
2023/08/03 18:14:17;;;;;;;;;;;;;;;;;;5116395;28;19990;-70
2023/08/03 18:16:43;;;;;;;;;;;;;;;;;;5116237;28;19908;-71
2023/08/03 18:19:09;;;;;;;;;;;;;;;;;;5115910;28;20416;-70
2023/08/03 18:21:35;;;;;;;;;;;;;;;;;;5116274;28;20322;-70
2023/08/03 18:24:01;;;;;;;;;;;;;;;;;;5116330;28;20261;-70
2023/08/03 18:26:27;;;;;;;;;;;;;;;;;;5115675;28;19908;-69
2023/08/03 18:28:53;;;;;;;;;;;;;;;;;;5116754;28;20338;-69